x

Lake Winnipeg Narrows (45145) Wave Buoy

2:00am - Wed 3rd Sep 2014 All times are UTC.

  • Sig Wave height 0.7ft
  • Peak Period 2s
  • Wind
    11mph, 13mph gusts
  • Sea Temp 65°f
  • Air Temp 63°f
  • Sea Pressure 1004.8mb

More Historic Weather Station data

Upgrade to MSW Pro to gain access to the past 30 days of data for over 8000 Wavebouys and Weather Stations around the globe.

Join Pro

Comparision Forecast

View Surf forecast
   
Wed 09/03 2:00am 0.7ft 2s 11 13 mph 1004.8mb 65f 63f
1:00am 0.7ft 3s 9 11 mph 1004.2mb 65f 62f
12:00am 1ft 3s 7 9 mph 1004mb 65f 62f
Tue 09/02 11:00pm 1.3ft 3s 9 11 mph 1004.4mb 65f 60f
10:00pm 1ft 2s 16 18 mph 1003.6mb 65f 64f
9:00pm 0.3ft 2s 13 18 mph 1003.4mb 66f 65f
8:00pm 0.3ft 2s 7 11 mph 1003.8mb 66f 62f
7:00pm 0.7ft 2s 9
mph
1003.9mb 66f 62f
6:00pm 0.7ft 2s 7 9 mph 1004.1mb 66f 61f
5:00pm 0.7ft 2s 2 4 mph 1004.2mb 65f 60f
4:00pm 0.7ft 2s 11 13 mph 1004.3mb 65f 60f
3:00pm 0.7ft 2s 16 18 mph 1004.4mb 65f 60f
2:00pm 1ft 2s 9 13 mph 1004.2mb 65f 60f
1:00pm 1ft 2s 13 16 mph 1004.3mb 65f 59f
12:00pm 1ft 2s 11 13 mph 1004mb 65f 59f
11:00am 1.3ft 3s 11 13 mph 1004.1mb 65f 59f
10:00am 1.3ft 3s 13 16 mph 1004mb 65f 59f
9:00am 1.3ft 3s 13 16 mph 1004mb 65f 59f
8:00am 1ft 2s 13 18 mph 1003.7mb 65f 60f
7:00am 1ft 2s 13 16 mph 1003.7mb 65f 59f
6:00am 1ft 2s 13 16 mph 1003.8mb 65f 60f
5:00am 0.7ft 2s 16 18 mph 1003.6mb 65f 61f
4:00am 0.7ft 3s 9 11 mph 1003.9mb 65f 61f
3:00am 1.3ft 3s 4
mph
1003.8mb 65f 61f
2:00am 1.6ft 3s 13 16 mph 1004mb 65f 62f
1:00am 1.6ft 3s 18 20 mph 1003.4mb 66f 62f
12:00am 1.3ft 3s 18 22 mph 1002.9mb 66f 64f
Mon 09/01 11:00pm 0.7ft 2s 9 16 mph 1002.5mb 66f 62f
10:00pm 0.7ft 2s 9 11 mph 1001.8mb 66f 66f
9:00pm 0.7ft 2s 9
mph
1001.7mb 67f 66f
8:00pm 0.3ft 2s 4
mph
1001.6mb 67f 65f
7:00pm 0.7ft 2s 7 9 mph 1002.1mb 66f 66f
6:00pm 0.3ft 2s 9 11 mph 1002.4mb 66f 65f
5:00pm 0.7ft 2s 9
mph
1002.6mb 66f 63f
4:00pm 0.7ft 2s 7
mph
1002.4mb 65f 62f
3:00pm 0.7ft 2s 7 9 mph 1002.4mb 65f 61f
2:00pm 0.7ft 2s 7 9 mph 1002.2mb 65f 61f
1:00pm 0.7ft 3s 7 9 mph 1002.1mb 65f 61f
12:00pm 1ft 2s 9 13 mph 1002.3mb 65f 61f
11:00am 1ft 3s 11 13 mph 1002.3mb 65f 62f
10:00am 1ft 2s 13
mph
1002.6mb 65f 62f
9:00am 1ft 3s 13
mph
1002.5mb 65f 61f
8:00am 1ft 3s 9 11 mph 1002.7mb 65f 62f
7:00am 1ft 2s 13 16 mph 1001.9mb 65f 62f
6:00am 1ft 2s 11 13 mph 1002.4mb 65f 61f
5:00am 1ft 2s 11 13 mph 1001.8mb 65f 62f
4:00am 0.7ft 2s 13 16 mph 1001.5mb 65f 62f
3:00am 0.7ft 2s 9 11 mph 1002mb 65f 62f
2:00am 0.3ft 2s 9 11 mph 1002.1mb 65f 62f
1:00am 0.7ft 2s 7
mph
1002mb 66f 62f
12:00am 0.3ft 2s 9 11 mph 1002mb 66f 61f
Sun 08/31 11:00pm 0.3ft 2s 9
mph
1002.1mb 66f 62f
10:00pm 0.3ft 2s 7 9 mph 1002mb 66f 62f
9:00pm 0.3ft 2s 4
mph
1002.2mb 66f 62f
8:00pm 0.3ft 2s 9
mph
1002.5mb 66f 61f
7:00pm 0.7ft 2s 9 11 mph 1002.8mb 66f 61f
6:00pm 1ft 3s 7 9 mph 1003.3mb 66f 61f
5:00pm 1ft 3s 11 13 mph 1003.5mb 66f 61f
4:00pm 1.3ft 3s 13 16 mph 1003.9mb 66f 61f
3:00pm 1.3ft 3s 16 18 mph 1004.1mb 66f 62f
2:00pm 1.3ft 3s 13 18 mph 1004.3mb 66f 62f
1:00pm 1.3ft 3s 16 18 mph 1004.6mb 66f 62f
12:00pm 1.3ft 3s 16 18 mph 1004.5mb 66f 61f
11:00am 1.6ft 3s 16 20 mph 1004.7mb 66f 64f
10:00am 1.6ft 3s 16 20 mph 1005.7mb 66f 63f
9:00am 1.6ft 3s 18 22 mph 1006.4mb 66f 63f
8:00am 2ft 3s 18 22 mph 1006.7mb 66f 64f
7:00am 1.3ft 3s 20 22 mph 1007.6mb 66f 64f
6:00am 1ft 2s 18 20 mph 1007.3mb 66f 63f
5:00am 1ft 2s 13 18 mph 1008.1mb 66f 64f
4:00am 1ft 2s 11 16 mph 1008.6mb 66f 64f
3:00am 1ft 2s 11 13 mph 1008.9mb 66f 64f
2:00am 1.3ft 2s 13 16 mph 1009.1mb 66f 64f
1:00am 1.3ft 2s 13 18 mph 1008.9mb 66f 65f
12:00am 1.3ft 3s 16 18 mph 1009.2mb 66f 65f
Sat 08/30 11:00pm 1ft 2s 13 16 mph 1010.1mb 66f 66f
10:00pm 1ft 2s 13 16 mph 1010.5mb 66f 65f
9:00pm 0.7ft 2s 11 16 mph 1011.3mb 66f 65f
8:00pm 0.7ft 2s 11 16 mph 1012mb 66f 64f
7:00pm 0.7ft 2s 11 13 mph 1012.4mb 66f 63f
6:00pm 0.7ft 2s 9 11 mph 1013.4mb 66f 61f
5:00pm 1ft 2s 9 13 mph 1014.3mb 65f 60f
4:00pm 1ft 2s 11 13 mph 1014.8mb 65f 60f
3:00pm 1ft 2s 11 13 mph 1014.9mb 65f 58f
2:00pm 1ft 2s 16 18 mph 1015.3mb 64f 57f
1:00pm 0.7ft 2s 13 16 mph 1015.5mb 64f 56f
12:00pm 0.7ft 2s 13 16 mph 1015.4mb 64f 56f
11:00am 0.7ft 2s 9 11 mph 1015.4mb 64f 56f
10:00am 0.7ft 3s 9 11 mph 1015.3mb 64f 56f
9:00am 1ft 3s 7 9 mph 1015.1mb 64f 57f
8:00am 1ft 3s 11 13 mph 1015mb 65f 56f
7:00am 1.3ft 3s 11 13 mph 1014.9mb 65f 58f
6:00am 1.6ft 4s 13 16 mph 1014.8mb 65f 60f
5:00am 2ft 4s 16 18 mph 1014.7mb 65f 60f
4:00am 2.5ft 4s 16 18 mph 1014.4mb 65f 60f